sensor_id;sensor_type;location;lat;lon;timestamp;pressure;altitude;pressure_sealevel;temperature;humidity
53270;BME280;39159;45.634;9.420;2023-04-07T00:01:18;98871.38;;;6.78;52.50
53270;BME280;39159;45.634;9.420;2023-04-07T00:03:45;98872.56;;;6.67;52.44
53270;BME280;39159;45.634;9.420;2023-04-07T00:06:11;98862.53;;;6.68;52.93
53270;BME280;39159;45.634;9.420;2023-04-07T00:08:38;98867.97;;;6.62;53.04
53270;BME280;39159;45.634;9.420;2023-04-07T00:11:03;98868.50;;;6.64;53.06
53270;BME280;39159;45.634;9.420;2023-04-07T00:13:29;98866.63;;;6.65;53.65
53270;BME280;39159;45.634;9.420;2023-04-07T00:15:55;98858.75;;;6.63;54.73
53270;BME280;39159;45.634;9.420;2023-04-07T00:18:21;98863.91;;;6.60;54.37
53270;BME280;39159;45.634;9.420;2023-04-07T00:20:46;98868.28;;;6.61;54.38
53270;BME280;39159;45.634;9.420;2023-04-07T00:23:11;98868.53;;;6.59;55.22
53270;BME280;39159;45.634;9.420;2023-04-07T00:25:37;98861.78;;;6.57;54.91
53270;BME280;39159;45.634;9.420;2023-04-07T00:28:02;98865.59;;;6.56;55.59
53270;BME280;39159;45.634;9.420;2023-04-07T00:30:28;98868.34;;;6.51;55.35
53270;BME280;39159;45.634;9.420;2023-04-07T00:32:53;98871.47;;;6.29;56.93
53270;BME280;39159;45.634;9.420;2023-04-07T00:35:19;98872.38;;;6.19;56.94
53270;BME280;39159;45.634;9.420;2023-04-07T00:37:44;98868.88;;;6.13;57.09
53270;BME280;39159;45.634;9.420;2023-04-07T00:40:10;98871.66;;;6.03;56.98
53270;BME280;39159;45.634;9.420;2023-04-07T00:42:36;98879.78;;;5.98;57.50
53270;BME280;39159;45.634;9.420;2023-04-07T00:45:01;98880.31;;;6.00;57.04
53270;BME280;39159;45.634;9.420;2023-04-07T00:47:27;98884.94;;;5.99;57.24
53270;BME280;39159;45.634;9.420;2023-04-07T00:49:52;98872.50;;;5.98;57.25
53270;BME280;39159;45.634;9.420;2023-04-07T00:52:18;98867.63;;;5.95;56.70
53270;BME280;39159;45.634;9.420;2023-04-07T00:54:51;98873.31;;;5.89;56.74
53270;BME280;39159;45.634;9.420;2023-04-07T00:57:17;98866.28;;;5.88;57.19
53270;BME280;39159;45.634;9.420;2023-04-07T00:59:43;98864.13;;;5.90;57.77
53270;BME280;39159;45.634;9.420;2023-04-07T01:02:40;98865.75;;;5.86;57.45
53270;BME280;39159;45.634;9.420;2023-04-07T01:05:19;98863.63;;;5.82;57.03
53270;BME280;39159;45.634;9.420;2023-04-07T01:10:36;98862.78;;;5.87;57.17
53270;BME280;39159;45.634;9.420;2023-04-07T01:13:21;98863.63;;;5.77;57.37
53270;BME280;39159;45.634;9.420;2023-04-07T01:15:49;98860.13;;;5.72;57.07
53270;BME280;39159;45.634;9.420;2023-04-07T01:18:21;98862.31;;;5.70;57.53
53270;BME280;39159;45.634;9.420;2023-04-07T01:20:50;98856.91;;;5.70;58.03
53270;BME280;39159;45.634;9.420;2023-04-07T01:23:25;98853.66;;;5.68;58.31
53270;BME280;39159;45.634;9.420;2023-04-07T01:31:42;98861.41;;;5.95;59.40
53270;BME280;39159;45.634;9.420;2023-04-07T01:34:11;98856.25;;;5.98;58.64
53270;BME280;39159;45.634;9.420;2023-04-07T01:36:38;98848.91;;;5.99;58.39
53270;BME280;39159;45.634;9.420;2023-04-07T01:39:05;98857.31;;;5.97;59.46
53270;BME280;39159;45.634;9.420;2023-04-07T01:41:32;98848.13;;;5.98;59.48
53270;BME280;39159;45.634;9.420;2023-04-07T01:43:59;98853.75;;;6.02;60.01
53270;BME280;39159;45.634;9.420;2023-04-07T01:46:25;98845.16;;;5.95;61.12
53270;BME280;39159;45.634;9.420;2023-04-07T01:48:51;98853.50;;;5.93;60.69
53270;BME280;39159;45.634;9.420;2023-04-07T01:51:19;98841.91;;;5.88;61.31
53270;BME280;39159;45.634;9.420;2023-04-07T01:53:46;98852.47;;;5.89;61.43
53270;BME280;39159;45.634;9.420;2023-04-07T01:56:12;98843.56;;;5.84;61.77
53270;BME280;39159;45.634;9.420;2023-04-07T01:58:38;98850.88;;;5.83;62.14
53270;BME280;39159;45.634;9.420;2023-04-07T02:01:04;98851.72;;;5.78;62.19
53270;BME280;39159;45.634;9.420;2023-04-07T02:04:51;98844.97;;;5.76;62.55
53270;BME280;39159;45.634;9.420;2023-04-07T02:06:51;98847.44;;;5.67;62.70
53270;BME280;39159;45.634;9.420;2023-04-07T02:09:19;98844.19;;;5.65;63.43
53270;BME280;39159;45.634;9.420;2023-04-07T02:11:45;98840.97;;;5.58;63.03
53270;BME280;39159;45.634;9.420;2023-04-07T02:14:12;98845.34;;;5.54;62.62
53270;BME280;39159;45.634;9.420;2023-04-07T02:16:40;98853.72;;;5.52;62.86
53270;BME280;39159;45.634;9.420;2023-04-07T02:19:07;98847.22;;;5.53;63.02
53270;BME280;39159;45.634;9.420;2023-04-07T02:21:33;98855.31;;;5.53;63.25
53270;BME280;39159;45.634;9.420;2023-04-07T02:24:06;98842.34;;;5.50;63.44
53270;BME280;39159;45.634;9.420;2023-04-07T02:26:35;98839.91;;;5.49;63.80
53270;BME280;39159;45.634;9.420;2023-04-07T02:29:02;98844.53;;;5.48;63.91
53270;BME280;39159;45.634;9.420;2023-04-07T02:31:27;98840.75;;;5.49;63.87
53270;BME280;39159;45.634;9.420;2023-04-07T02:33:53;98841.00;;;5.53;63.55
53270;BME280;39159;45.634;9.420;2023-04-07T02:36:18;98843.97;;;5.51;63.91
53270;BME280;39159;45.634;9.420;2023-04-07T02:38:44;98841.28;;;5.46;64.00
53270;BME280;39159;45.634;9.420;2023-04-07T02:41:09;98843.19;;;5.46;63.88
53270;BME280;39159;45.634;9.420;2023-04-07T02:43:35;98850.78;;;5.44;64.58
53270;BME280;39159;45.634;9.420;2023-04-07T02:46:00;98858.34;;;5.47;64.75
53270;BME280;39159;45.634;9.420;2023-04-07T02:48:26;98869.69;;;5.49;64.21
53270;BME280;39159;45.634;9.420;2023-04-07T02:50:51;98863.44;;;5.53;64.21
53270;BME280;39159;45.634;9.420;2023-04-07T02:53:17;98859.13;;;5.52;64.42
53270;BME280;39159;45.634;9.420;2023-04-07T02:55:42;98852.09;;;5.56;64.85
53270;BME280;39159;45.634;9.420;2023-04-07T02:58:08;98847.22;;;5.53;64.83
53270;BME280;39159;45.634;9.420;2023-04-07T03:00:33;98850.47;;;5.50;64.21
53270;BME280;39159;45.634;9.420;2023-04-07T03:02:59;98842.09;;;5.47;64.25
53270;BME280;39159;45.634;9.420;2023-04-07T03:05:25;98837.50;;;5.47;64.31
53270;BME280;39159;45.634;9.420;2023-04-07T03:07:51;98841.00;;;5.53;63.48
53270;BME280;39159;45.634;9.420;2023-04-07T03:10:16;98835.84;;;5.56;62.70
53270;BME280;39159;45.634;9.420;2023-04-07T03:12:42;98833.09;;;5.61;62.18
53270;BME280;39159;45.634;9.420;2023-04-07T03:15:08;98841.50;;;5.65;61.81
53270;BME280;39159;45.634;9.420;2023-04-07T03:17:33;98846.59;;;5.72;61.74
53270;BME280;39159;45.634;9.420;2023-04-07T03:19:59;98843.06;;;5.76;61.22
53270;BME280;39159;45.634;9.420;2023-04-07T03:22:25;98841.91;;;5.88;61.29
53270;BME280;39159;45.634;9.420;2023-04-07T03:24:50;98835.66;;;5.97;60.87
53270;BME280;39159;45.634;9.420;2023-04-07T03:27:16;98839.16;;;6.03;60.69
53270;BME280;39159;45.634;9.420;2023-04-07T03:29:41;98835.94;;;5.96;59.78
53270;BME280;39159;45.634;9.420;2023-04-07T03:32:07;98834.31;;;5.95;59.57
53270;BME280;39159;45.634;9.420;2023-04-07T03:34:33;98830.81;;;5.94;59.42
53270;BME280;39159;45.634;9.420;2023-04-07T03:36:58;98829.69;;;5.95;59.21
53270;BME280;39159;45.634;9.420;2023-04-07T03:39:24;98830.75;;;5.99;59.57
53270;BME280;39159;45.634;9.420;2023-04-07T03:41:50;98831.25;;;6.07;59.15
53270;BME280;39159;45.634;9.420;2023-04-07T03:44:16;98823.66;;;6.09;59.05
53270;BME280;39159;45.634;9.420;2023-04-07T03:46:41;98830.97;;;6.08;58.97
53270;BME280;39159;45.634;9.420;2023-04-07T03:49:09;98837.72;;;6.11;58.58
53270;BME280;39159;45.634;9.420;2023-04-07T03:51:35;98829.06;;;6.14;58.25
53270;BME280;39159;45.634;9.420;2023-04-07T03:54:00;98833.38;;;6.15;57.83
53270;BME280;39159;45.634;9.420;2023-04-07T03:56:26;98830.66;;;6.15;58.08
53270;BME280;39159;45.634;9.420;2023-04-07T03:58:51;98831.19;;;6.17;57.92
53270;BME280;39159;45.634;9.420;2023-04-07T04:01:17;98829.63;;;6.06;58.32
53270;BME280;39159;45.634;9.420;2023-04-07T04:03:42;98822.16;;;5.87;58.87
53270;BME280;39159;45.634;9.420;2023-04-07T04:06:08;98827.63;;;5.77;59.25
53270;BME280;39159;45.634;9.420;2023-04-07T04:08:33;98822.28;;;5.61;59.68
53270;BME280;39159;45.634;9.420;2023-04-07T04:10:59;98826.09;;;5.55;59.92
53270;BME280;39159;45.634;9.420;2023-04-07T04:13:24;98819.88;;;5.55;59.81
53270;BME280;39159;45.634;9.420;2023-04-07T04:15:50;98814.22;;;5.46;59.96
53270;BME280;39159;45.634;9.420;2023-04-07T04:18:16;98817.22;;;5.39;60.42
53270;BME280;39159;45.634;9.420;2023-04-07T04:20:42;98814.00;;;5.37;60.59
53270;BME280;39159;45.634;9.420;2023-04-07T04:23:07;98808.84;;;5.41;60.65
53270;BME280;39159;45.634;9.420;2023-04-07T04:25:33;98806.13;;;5.41;60.18
53270;BME280;39159;45.634;9.420;2023-04-07T04:27:58;98800.72;;;5.41;59.98
53270;BME280;39159;45.634;9.420;2023-04-07T04:30:24;98796.91;;;5.47;60.11
53270;BME280;39159;45.634;9.420;2023-04-07T04:32:49;98805.53;;;5.54;59.68
53270;BME280;39159;45.634;9.420;2023-04-07T04:35:15;98802.00;;;5.59;58.88
53270;BME280;39159;45.634;9.420;2023-04-07T04:37:40;98805.50;;;5.59;58.62
53270;BME280;39159;45.634;9.420;2023-04-07T04:40:06;98796.56;;;5.59;58.77
53270;BME280;39159;45.634;9.420;2023-04-07T04:42:33;98804.44;;;5.60;58.95
53270;BME280;39159;45.634;9.420;2023-04-07T04:44:58;98808.78;;;5.56;59.49
53270;BME280;39159;45.634;9.420;2023-04-07T04:47:24;98807.44;;;5.54;59.94
53270;BME280;39159;45.634;9.420;2023-04-07T04:49:50;98811.78;;;5.50;61.92
53270;BME280;39159;45.634;9.420;2023-04-07T04:52:16;98815.88;;;5.42;60.25
53270;BME280;39159;45.634;9.420;2023-04-07T04:54:41;98820.78;;;5.30;60.49
53270;BME280;39159;45.634;9.420;2023-04-07T04:57:06;98820.25;;;5.28;60.98
53270;BME280;39159;45.634;9.420;2023-04-07T04:59:33;98820.25;;;5.28;61.59
53270;BME280;39159;45.634;9.420;2023-04-07T05:01:58;98829.44;;;5.27;62.41
53270;BME280;39159;45.634;9.420;2023-04-07T05:04:24;98820.19;;;5.38;63.05
53270;BME280;39159;45.634;9.420;2023-04-07T05:06:49;98821.28;;;5.47;61.84
53270;BME280;39159;45.634;9.420;2023-04-07T05:09:15;98822.53;;;5.60;63.38
53270;BME280;39159;45.634;9.420;2023-04-07T05:11:41;98813.59;;;5.65;63.23
53270;BME280;39159;45.634;9.420;2023-04-07T05:14:07;98817.41;;;5.64;61.98
53270;BME280;39159;45.634;9.420;2023-04-07T05:16:34;98813.53;;;5.75;60.47
53270;BME280;39159;45.634;9.420;2023-04-07T05:19:00;98800.28;;;5.73;60.40
53270;BME280;39159;45.634;9.420;2023-04-07T05:21:25;98796.22;;;5.71;60.58
53270;BME280;39159;45.634;9.420;2023-04-07T05:23:51;98804.09;;;5.72;60.44
53270;BME280;39159;45.634;9.420;2023-04-07T05:26:17;98806.25;;;5.70;60.15
53270;BME280;39159;45.634;9.420;2023-04-07T05:28:42;98808.16;;;5.70;59.91
53270;BME280;39159;45.634;9.420;2023-04-07T05:31:08;98814.88;;;5.77;60.17
53270;BME280;39159;45.634;9.420;2023-04-07T05:33:33;98815.13;;;5.81;59.34
53270;BME280;39159;45.634;9.420;2023-04-07T05:35:59;98815.09;;;5.86;59.59
53270;BME280;39159;45.634;9.420;2023-04-07T05:38:24;98811.53;;;5.91;59.02
53270;BME280;39159;45.634;9.420;2023-04-07T05:40:50;98804.00;;;5.88;59.32
53270;BME280;39159;45.634;9.420;2023-04-07T05:43:15;98811.59;;;5.86;59.54
53270;BME280;39159;45.634;9.420;2023-04-07T05:45:41;98818.81;;;6.06;62.50
53270;BME280;39159;45.634;9.420;2023-04-07T05:48:06;98818.16;;;6.53;59.24
53270;BME280;39159;45.634;9.420;2023-04-07T05:50:32;98816.41;;;6.38;57.73
53270;BME280;39159;45.634;9.420;2023-04-07T05:52:57;98817.00;;;6.30;57.90
53270;BME280;39159;45.634;9.420;2023-04-07T05:55:23;98808.38;;;6.23;59.53
53270;BME280;39159;45.634;9.420;2023-04-07T05:57:48;98813.03;;;6.17;59.93
53270;BME280;39159;45.634;9.420;2023-04-07T06:00:14;98812.47;;;6.20;59.32
53270;BME280;39159;45.634;9.420;2023-04-07T06:02:40;98819.44;;;6.27;58.97
53270;BME280;39159;45.634;9.420;2023-04-07T06:05:06;98814.25;;;6.35;57.72
53270;BME280;39159;45.634;9.420;2023-04-07T06:07:31;98816.09;;;6.40;56.88
53270;BME280;39159;45.634;9.420;2023-04-07T06:09:57;98813.91;;;6.42;56.56
53270;BME280;39159;45.634;9.420;2023-04-07T06:12:22;98817.47;;;6.42;56.50
53270;BME280;39159;45.634;9.420;2023-04-07T06:14:52;98814.16;;;6.46;56.50
53270;BME280;39159;45.634;9.420;2023-04-07T06:17:18;98818.47;;;6.47;57.12
53270;BME280;39159;45.634;9.420;2023-04-07T06:19:44;98823.88;;;6.52;57.05
53270;BME280;39159;45.634;9.420;2023-04-07T06:22:10;98827.13;;;6.54;56.53
53270;BME280;39159;45.634;9.420;2023-04-07T06:24:35;98833.28;;;6.59;57.61
53270;BME280;39159;45.634;9.420;2023-04-07T06:27:01;98835.72;;;6.61;56.35
53270;BME280;39159;45.634;9.420;2023-04-07T06:29:28;98830.53;;;6.64;57.60
53270;BME280;39159;45.634;9.420;2023-04-07T06:31:53;98831.88;;;6.67;57.11
53270;BME280;39159;45.634;9.420;2023-04-07T06:34:19;98832.91;;;6.71;56.44
53270;BME280;39159;45.634;9.420;2023-04-07T06:36:45;98829.34;;;6.76;56.26
53270;BME280;39159;45.634;9.420;2023-04-07T06:39:10;98823.31;;;6.84;56.12
53270;BME280;39159;45.634;9.420;2023-04-07T06:41:36;98821.31;;;6.95;55.36
53270;BME280;39159;45.634;9.420;2023-04-07T06:44:03;98824.13;;;7.09;54.88
53270;BME280;39159;45.634;9.420;2023-04-07T06:46:28;98822.88;;;7.25;55.57
53270;BME280;39159;45.634;9.420;2023-04-07T06:48:54;98825.19;;;7.37;54.48
53270;BME280;39159;45.634;9.420;2023-04-07T06:51:20;98822.75;;;7.35;53.63
53270;BME280;39159;45.634;9.420;2023-04-07T06:53:45;98826.56;;;7.58;53.34
53270;BME280;39159;45.634;9.420;2023-04-07T06:56:12;98820.78;;;7.84;53.13
53270;BME280;39159;45.634;9.420;2023-04-07T06:58:38;98817.75;;;8.04;52.09
53270;BME280;39159;45.634;9.420;2023-04-07T07:01:04;98817.91;;;8.13;51.85
53270;BME280;39159;45.634;9.420;2023-04-07T07:03:31;98814.75;;;8.25;51.45
53270;BME280;39159;45.634;9.420;2023-04-07T07:05:58;98819.13;;;8.40;51.74
53270;BME280;39159;45.634;9.420;2023-04-07T07:08:24;98822.22;;;8.52;51.54
53270;BME280;39159;45.634;9.420;2023-04-07T07:10:51;98828.69;;;8.56;51.79
53270;BME280;39159;45.634;9.420;2023-04-07T07:13:22;98812.38;;;8.56;53.37
53270;BME280;39159;45.634;9.420;2023-04-07T07:15:49;98820.66;;;8.65;53.51
53270;BME280;39159;45.634;9.420;2023-04-07T07:18:16;98813.50;;;8.69;53.03
53270;BME280;39159;45.634;9.420;2023-04-07T07:20:41;98813.72;;;8.73;54.10
53270;BME280;39159;45.634;9.420;2023-04-07T07:23:07;98817.66;;;8.80;53.97
53270;BME280;39159;45.634;9.420;2023-04-07T07:25:33;98812.53;;;8.92;54.10
53270;BME280;39159;45.634;9.420;2023-04-07T07:27:58;98810.94;;;8.91;54.99
53270;BME280;39159;45.634;9.420;2023-04-07T07:30:24;98814.59;;;9.01;55.28
53270;BME280;39159;45.634;9.420;2023-04-07T07:32:50;98824.97;;;8.99;55.33
53270;BME280;39159;45.634;9.420;2023-04-07T07:35:17;98820.31;;;8.99;55.23
53270;BME280;39159;45.634;9.420;2023-04-07T07:37:43;98826.38;;;9.10;54.55
53270;BME280;39159;45.634;9.420;2023-04-07T07:40:09;98824.06;;;9.17;54.63
53270;BME280;39159;45.634;9.420;2023-04-07T07:42:35;98825.78;;;9.27;53.70
53270;BME280;39159;45.634;9.420;2023-04-07T07:45:00;98827.59;;;9.31;53.70
53270;BME280;39159;45.634;9.420;2023-04-07T07:47:26;98822.56;;;9.39;54.40
53270;BME280;39159;45.634;9.420;2023-04-07T07:49:51;98824.25;;;9.62;54.39
53270;BME280;39159;45.634;9.420;2023-04-07T07:52:17;98826.97;;;9.76;53.35
53270;BME280;39159;45.634;9.420;2023-04-07T07:54:45;98822.38;;;9.99;52.20
53270;BME280;39159;45.634;9.420;2023-04-07T07:57:10;98825.78;;;10.05;52.46
53270;BME280;39159;45.634;9.420;2023-04-07T07:59:37;98824.50;;;10.39;51.79
53270;BME280;39159;45.634;9.420;2023-04-07T08:02:02;98821.75;;;10.61;51.79
53270;BME280;39159;45.634;9.420;2023-04-07T08:04:28;98824.41;;;10.75;52.46
53270;BME280;39159;45.634;9.420;2023-04-07T08:06:53;98823.22;;;10.90;53.00
53270;BME280;39159;45.634;9.420;2023-04-07T08:09:19;98823.97;;;10.82;55.94
53270;BME280;39159;45.634;9.420;2023-04-07T08:11:45;98819.78;;;10.84;57.02
53270;BME280;39159;45.634;9.420;2023-04-07T08:14:12;98819.47;;;10.54;62.15
53270;BME280;39159;45.634;9.420;2023-04-07T08:16:38;98818.41;;;10.64;61.29
53270;BME280;39159;45.634;9.420;2023-04-07T08:19:03;98820.03;;;10.65;59.78
53270;BME280;39159;45.634;9.420;2023-04-07T08:21:29;98824.28;;;10.57;59.25
53270;BME280;39159;45.634;9.420;2023-04-07T08:23:56;98814.63;;;10.51;60.02
53270;BME280;39159;45.634;9.420;2023-04-07T08:26:21;98816.16;;;10.66;59.80
53270;BME280;39159;45.634;9.420;2023-04-07T08:28:48;98815.41;;;10.74;59.81
53270;BME280;39159;45.634;9.420;2023-04-07T08:31:16;98822.97;;;10.77;60.28
53270;BME280;39159;45.634;9.420;2023-04-07T08:33:41;98818.81;;;10.80;59.88
53270;BME280;39159;45.634;9.420;2023-04-07T08:36:07;98828.72;;;10.67;60.52
53270;BME280;39159;45.634;9.420;2023-04-07T08:38:32;98824.41;;;10.75;60.25
53270;BME280;39159;45.634;9.420;2023-04-07T08:41:02;98822.25;;;10.63;60.73
53270;BME280;39159;45.634;9.420;2023-04-07T08:43:29;98816.41;;;10.56;60.52
53270;BME280;39159;45.634;9.420;2023-04-07T08:45:56;98817.84;;;10.53;60.57
53270;BME280;39159;45.634;9.420;2023-04-07T08:48:22;98822.19;;;10.54;60.75
53270;BME280;39159;45.634;9.420;2023-04-07T08:50:51;98824.00;;;10.59;60.37
53270;BME280;39159;45.634;9.420;2023-04-07T08:53:22;98825.97;;;10.67;60.53
53270;BME280;39159;45.634;9.420;2023-04-07T08:55:52;98821.22;;;10.82;60.50
53270;BME280;39159;45.634;9.420;2023-04-07T08:58:19;98827.84;;;10.89;60.27
53270;BME280;39159;45.634;9.420;2023-04-07T09:00:45;98824.06;;;10.99;59.39
53270;BME280;39159;45.634;9.420;2023-04-07T09:03:14;98827.94;;;11.07;59.93
53270;BME280;39159;45.634;9.420;2023-04-07T09:05:40;98822.31;;;11.03;59.69
53270;BME280;39159;45.634;9.420;2023-04-07T09:08:05;98822.44;;;10.98;59.87
53270;BME280;39159;45.634;9.420;2023-04-07T09:10:31;98821.03;;;11.01;60.50
53270;BME280;39159;45.634;9.420;2023-04-07T09:12:59;98822.13;;;10.99;60.91
53270;BME280;39159;45.634;9.420;2023-04-07T09:15:30;98830.97;;;10.96;60.58
53270;BME280;39159;45.634;9.420;2023-04-07T09:17:57;98820.34;;;10.95;61.28
53270;BME280;39159;45.634;9.420;2023-04-07T09:20:23;98822.44;;;10.98;61.03
53270;BME280;39159;45.634;9.420;2023-04-07T09:22:50;98818.41;;;10.95;61.44
53270;BME280;39159;45.634;9.420;2023-04-07T09:25:20;98818.50;;;10.82;62.49
53270;BME280;39159;45.634;9.420;2023-04-07T09:28:03;98823.03;;;10.86;63.54
53270;BME280;39159;45.634;9.420;2023-04-07T09:30:32;98827.63;;;11.08;62.18
53270;BME280;39159;45.634;9.420;2023-04-07T09:32:59;98821.44;;;11.25;62.22
53270;BME280;39159;45.634;9.420;2023-04-07T09:35:25;98819.91;;;11.41;62.90
53270;BME280;39159;45.634;9.420;2023-04-07T09:38:07;98820.09;;;11.54;63.51
53270;BME280;39159;45.634;9.420;2023-04-07T09:40:34;98824.78;;;11.62;60.73
53270;BME280;39159;45.634;9.420;2023-04-07T09:43:04;98808.09;;;11.81;60.28
53270;BME280;39159;45.634;9.420;2023-04-07T09:45:31;98813.56;;;11.81;60.94
53270;BME280;39159;45.634;9.420;2023-04-07T09:47:56;98812.13;;;11.83;61.45
53270;BME280;39159;45.634;9.420;2023-04-07T09:50:37;98812.97;;;11.93;59.58
53270;BME280;39159;45.634;9.420;2023-04-07T09:53:04;98813.28;;;12.00;60.56
53270;BME280;39159;45.634;9.420;2023-04-07T09:55:30;98814.91;;;12.10;59.73
53270;BME280;39159;45.634;9.420;2023-04-07T09:57:55;98813.47;;;12.03;59.75
53270;BME280;39159;45.634;9.420;2023-04-07T10:00:21;98816.81;;;12.18;58.68
53270;BME280;39159;45.634;9.420;2023-04-07T10:02:47;98805.25;;;12.03;60.57
53270;BME280;39159;45.634;9.420;2023-04-07T10:05:13;98805.09;;;12.09;61.23
53270;BME280;39159;45.634;9.420;2023-04-07T10:07:39;98802.84;;;12.19;59.97
53270;BME280;39159;45.634;9.420;2023-04-07T10:10:05;98804.59;;;12.15;60.34
53270;BME280;39159;45.634;9.420;2023-04-07T10:12:33;98791.56;;;12.30;60.19
53270;BME280;39159;45.634;9.420;2023-04-07T10:14:59;98795.59;;;12.41;59.68
53270;BME280;39159;45.634;9.420;2023-04-07T10:17:27;98789.94;;;12.37;60.01
53270;BME280;39159;45.634;9.420;2023-04-07T10:19:59;98798.13;;;12.55;60.29
53270;BME280;39159;45.634;9.420;2023-04-07T10:22:26;98787.97;;;12.64;58.54
53270;BME280;39159;45.634;9.420;2023-04-07T10:24:59;98795.56;;;12.58;59.43
53270;BME280;39159;45.634;9.420;2023-04-07T10:27:32;98785.75;;;12.49;58.82
53270;BME280;39159;45.634;9.420;2023-04-07T10:29:59;98778.69;;;12.39;58.93
53270;BME280;39159;45.634;9.420;2023-04-07T10:32:25;98786.03;;;12.56;60.48
53270;BME280;39159;45.634;9.420;2023-04-07T10:37:18;98779.66;;;12.43;58.98
53270;BME280;39159;45.634;9.420;2023-04-07T10:39:46;98775.25;;;12.59;59.12
53270;BME280;39159;45.634;9.420;2023-04-07T10:45:02;98768.94;;;12.76;57.67
53270;BME280;39159;45.634;9.420;2023-04-07T10:47:28;98764.88;;;12.82;58.25
53270;BME280;39159;45.634;9.420;2023-04-07T10:50:19;98757.13;;;12.93;58.85
53270;BME280;39159;45.634;9.420;2023-04-07T10:52:47;98761.72;;;13.10;57.26
53270;BME280;39159;45.634;9.420;2023-04-07T10:55:28;98758.56;;;12.91;57.50
53270;BME280;39159;45.634;9.420;2023-04-07T10:58:20;98752.81;;;13.22;56.24
53270;BME280;39159;45.634;9.420;2023-04-07T11:03:34;98743.25;;;12.98;54.55
53270;BME280;39159;45.634;9.420;2023-04-07T11:06:03;98743.78;;;13.30;54.25
53270;BME280;39159;45.634;9.420;2023-04-07T11:08:33;98738.56;;;13.37;54.05
53270;BME280;39159;45.634;9.420;2023-04-07T11:10:59;98734.75;;;13.30;54.29
53270;BME280;39159;45.634;9.420;2023-04-07T11:13:25;98746.47;;;13.60;54.95
53270;BME280;39159;45.634;9.420;2023-04-07T11:15:51;98732.25;;;13.66;51.63
53270;BME280;39159;45.634;9.420;2023-04-07T11:18:18;98732.31;;;13.79;51.27
53270;BME280;39159;45.634;9.420;2023-04-07T11:20:49;98727.06;;;14.07;50.76
53270;BME280;39159;45.634;9.420;2023-04-07T11:23:16;98735.03;;;14.54;50.43
53270;BME280;39159;45.634;9.420;2023-04-07T11:25:43;98731.69;;;14.48;48.56
53270;BME280;39159;45.634;9.420;2023-04-07T11:28:10;98722.72;;;14.85;47.81
53270;BME280;39159;45.634;9.420;2023-04-07T11:30:48;98729.06;;;14.85;47.12
53270;BME280;39159;45.634;9.420;2023-04-07T11:33:17;98723.22;;;14.99;46.59
53270;BME280;39159;45.634;9.420;2023-04-07T11:35:51;98712.31;;;15.52;45.46
53270;BME280;39159;45.634;9.420;2023-04-07T11:38:18;98710.31;;;15.65;43.65
53270;BME280;39159;45.634;9.420;2023-04-07T11:40:43;98706.78;;;15.77;43.87
53270;BME280;39159;45.634;9.420;2023-04-07T11:45:45;98703.16;;;15.36;45.19
53270;BME280;39159;45.634;9.420;2023-04-07T11:48:30;98705.44;;;15.33;44.12
53270;BME280;39159;45.634;9.420;2023-04-07T11:50:55;98701.19;;;15.61;44.07
53270;BME280;39159;45.634;9.420;2023-04-07T11:53:39;98693.34;;;15.63;43.37
53270;BME280;39159;45.634;9.420;2023-04-07T11:56:06;98696.16;;;15.38;43.16
53270;BME280;39159;45.634;9.420;2023-04-07T11:58:34;98691.50;;;15.67;43.33
53270;BME280;39159;45.634;9.420;2023-04-07T12:01:03;98682.25;;;15.71;43.21
53270;BME280;39159;45.634;9.420;2023-04-07T12:03:36;98677.66;;;15.75;42.55
53270;BME280;39159;45.634;9.420;2023-04-07T12:06:03;98673.16;;;15.18;43.94
53270;BME280;39159;45.634;9.420;2023-04-07T12:08:42;98668.81;;;15.17;42.15
53270;BME280;39159;45.634;9.420;2023-04-07T12:11:09;98668.44;;;15.31;42.71
53270;BME280;39159;45.634;9.420;2023-04-07T12:13:37;98656.78;;;15.09;41.73
53270;BME280;39159;45.634;9.420;2023-04-07T12:16:03;98664.44;;;15.28;41.15
53270;BME280;39159;45.634;9.420;2023-04-07T12:18:29;98664.94;;;15.71;40.98
53270;BME280;39159;45.634;9.420;2023-04-07T12:20:55;98648.78;;;15.98;40.50
53270;BME280;39159;45.634;9.420;2023-04-07T12:23:21;98655.94;;;16.14;37.85
53270;BME280;39159;45.634;9.420;2023-04-07T12:25:47;98652.97;;;16.07;37.69
53270;BME280;39159;45.634;9.420;2023-04-07T12:28:13;98657.53;;;16.15;36.54
53270;BME280;39159;45.634;9.420;2023-04-07T12:30:38;98660.41;;;15.91;35.94
53270;BME280;39159;45.634;9.420;2023-04-07T12:33:04;98661.91;;;15.88;36.12
53270;BME280;39159;45.634;9.420;2023-04-07T12:35:30;98648.44;;;15.99;34.87
53270;BME280;39159;45.634;9.420;2023-04-07T12:37:56;98639.06;;;16.16;36.80
53270;BME280;39159;45.634;9.420;2023-04-07T12:40:22;98646.81;;;16.26;36.10
53270;BME280;39159;45.634;9.420;2023-04-07T12:42:48;98638.66;;;16.46;36.60
53270;BME280;39159;45.634;9.420;2023-04-07T12:45:13;98631.19;;;16.30;37.80
53270;BME280;39159;45.634;9.420;2023-04-07T12:47:39;98640.88;;;15.68;39.40
53270;BME280;39159;45.634;9.420;2023-04-07T12:50:05;98640.72;;;15.36;39.88
53270;BME280;39159;45.634;9.420;2023-04-07T12:52:30;98632.75;;;15.19;39.23
53270;BME280;39159;45.634;9.420;2023-04-07T12:54:57;98635.28;;;14.87;40.08
53270;BME280;39159;45.634;9.420;2023-04-07T12:57:23;98634.50;;;14.74;40.11
53270;BME280;39159;45.634;9.420;2023-04-07T12:59:48;98639.41;;;14.81;39.92
53270;BME280;39159;45.634;9.420;2023-04-07T13:02:14;98627.50;;;14.89;40.25
53270;BME280;39159;45.634;9.420;2023-04-07T13:04:42;98625.91;;;14.76;40.36
53270;BME280;39159;45.634;9.420;2023-04-07T13:07:14;98624.19;;;14.71;40.01
53270;BME280;39159;45.634;9.420;2023-04-07T13:09:40;98621.66;;;14.66;41.76
53270;BME280;39159;45.634;9.420;2023-04-07T13:12:11;98612.97;;;14.64;42.42
53270;BME280;39159;45.634;9.420;2023-04-07T13:14:40;98618.22;;;14.69;42.46
53270;BME280;39159;45.634;9.420;2023-04-07T13:17:07;98615.97;;;14.59;41.89
53270;BME280;39159;45.634;9.420;2023-04-07T13:19:33;98617.53;;;14.60;41.66
53270;BME280;39159;45.634;9.420;2023-04-07T13:21:59;98615.94;;;14.71;41.82
53270;BME280;39159;45.634;9.420;2023-04-07T13:24:24;98610.13;;;14.73;40.97
53270;BME280;39159;45.634;9.420;2023-04-07T13:26:51;98606.34;;;14.77;40.93